Carmo do Rio Verde, Brazil
Current Conditions -  °F | °C
As of 1:00 PM on Monday 22 Dec 2014 (Local Time) from SBAN Reporting Station
Broken Clouds Broken Clouds  
Wind Chill: 79°   Ceiling: 2000
Heat Index: 81°   Visibility: 6mi
Dew Point: 64°   Wind: 6mph
Humidity: 61%   Direction: 310°NW
Pressure: 30.12"   Gusts: NA
Location:  15.35°S, 49.71°W
Report Text: SBAN 221500Z 31005KT 9999 BKN020 26/18 Q1020
Loading
Personal Weather Stations






























Interactive Weather Map New forecast layout! Learn more

10-Day Weather Forecast

Advertisements
Track Severe Weather on mobile